Trinity Springs, Indiana
Current Conditions -  °F | °C
As of 12:15 PM on Friday 21 Nov 2014 (Local Time) from KDCY Reporting Station
Clear Clear  
Wind Chill: 30°   Ceiling: Unl
Heat Index: 35°   Visibility: 10mi
Dew Point: 15°   Wind: 6mph
Humidity: 44%   Direction: 140°SE
Pressure: 30.46"   Gusts: NA
Location:  38.6262°N, 86.7615°W
Report Text: KDCY 211815Z AUTO 14005KT 10SM CLR 02/M09 A3046 RMK AO2 T00161094
Loading
Personal Weather Stations






























Interactive Weather Map New forecast layout! Learn more

10-Day Weather Forecast

Advertisements
Track Severe Weather on mobile